createdAt,value
2023-03-05T00:01:13.480Z,4.80
2023-03-05T00:04:39.707Z,5.17
2023-03-05T00:08:06.122Z,3.91
2023-03-05T00:11:33.768Z,1.97
2023-03-05T00:14:52.203Z,0.61
2023-03-05T00:18:18.436Z,-0.47
2023-03-05T00:21:44.578Z,-1.36
2023-03-05T00:25:10.995Z,-2.09
2023-03-05T00:28:36.978Z,-2.72
2023-03-05T00:32:02.956Z,-3.24
2023-03-05T00:35:22.008Z,-3.67
2023-03-05T00:38:47.727Z,-4.04
2023-03-05T00:42:13.413Z,-4.32
2023-03-05T00:45:39.189Z,-4.56
2023-03-05T00:49:05.256Z,-3.90
2023-03-05T00:52:30.951Z,-1.48
2023-03-05T00:55:56.758Z,0.39
2023-03-05T00:59:22.787Z,1.68
2023-03-05T01:02:48.531Z,2.55
2023-03-05T01:06:08.393Z,3.22
2023-03-05T01:09:34.071Z,3.77
2023-03-05T01:12:59.789Z,4.05
2023-03-05T01:16:25.599Z,4.34
2023-03-05T01:19:51.401Z,4.75
2023-03-05T01:23:17.552Z,5.15
2023-03-05T01:26:43.525Z,4.59
2023-03-05T01:30:10.896Z,2.54
2023-03-05T01:33:36.730Z,0.98
2023-03-05T01:37:02.420Z,-0.26
2023-03-05T01:40:29.430Z,-1.22
2023-03-05T01:43:55.021Z,-2.00
2023-03-05T01:47:20.979Z,-2.67
2023-03-05T01:50:46.641Z,-3.25
2023-03-05T01:54:14.646Z,-3.74
2023-03-05T01:57:43.204Z,-4.15
2023-03-05T02:01:09.081Z,-4.49
2023-03-05T02:04:37.514Z,-4.35
2023-03-05T02:08:05.623Z,-2.28
2023-03-05T02:11:31.803Z,-0.25
2023-03-05T02:14:59.918Z,1.18
2023-03-05T02:18:25.788Z,2.28
2023-03-05T02:21:52.094Z,3.14
2023-03-05T02:25:20.205Z,3.79
2023-03-05T02:28:47.036Z,4.43
2023-03-05T02:32:13.127Z,5.06
2023-03-05T02:35:39.125Z,4.70
2023-03-05T02:39:05.154Z,2.94
2023-03-05T02:42:33.618Z,1.70
2023-03-05T02:45:59.293Z,0.81
2023-03-05T02:49:25.288Z,0.11
2023-03-05T02:52:51.381Z,-0.50
2023-03-05T02:56:17.178Z,-1.00
2023-03-05T02:59:43.056Z,-1.43
2023-03-05T03:03:09.392Z,-1.77
2023-03-05T03:06:35.064Z,-2.06
2023-03-05T03:10:00.692Z,-2.19
2023-03-05T03:13:26.482Z,-0.56
2023-03-05T03:16:52.602Z,1.31
2023-03-05T03:20:19.222Z,2.45
2023-03-05T03:23:44.798Z,3.16
2023-03-05T03:27:10.948Z,2.84
2023-03-05T03:30:36.812Z,1.46
2023-03-05T03:34:03.215Z,0.54
2023-03-05T03:37:29.087Z,-0.10
2023-03-05T03:40:54.728Z,-0.60
2023-03-05T03:44:21.625Z,-1.02
2023-03-05T03:47:48.836Z,-1.36
2023-03-05T03:51:14.507Z,-1.62
2023-03-05T03:54:40.193Z,-1.84
2023-03-05T03:58:05.925Z,-2.01
2023-03-05T04:01:31.681Z,-2.14
2023-03-05T04:04:57.846Z,-2.18
2023-03-05T04:08:23.623Z,-0.70
2023-03-05T04:11:49.267Z,1.38
2023-03-05T04:15:15.255Z,2.57
2023-03-05T04:18:41.095Z,3.45
2023-03-05T04:22:06.926Z,3.80
2023-03-05T04:25:32.839Z,2.57
2023-03-05T04:28:58.490Z,1.47
2023-03-05T04:32:28.615Z,0.74
2023-03-05T04:35:54.195Z,0.16
2023-03-05T04:39:21.015Z,-0.28
2023-03-05T04:42:46.819Z,-0.55
2023-03-05T04:46:12.709Z,0.94
2023-03-05T04:49:38.409Z,2.74
2023-03-05T04:53:04.656Z,4.20
2023-03-05T04:56:30.439Z,4.48
2023-03-05T04:59:56.059Z,2.97
2023-03-05T05:03:22.040Z,1.84
2023-03-05T05:06:47.803Z,1.08
2023-03-05T05:10:14.649Z,0.54
2023-03-05T05:13:40.495Z,0.10
2023-03-05T05:17:06.474Z,-0.27
2023-03-05T05:20:32.385Z,-0.57
2023-03-05T05:23:57.945Z,-0.77
2023-03-05T05:27:23.744Z,0.57
2023-03-05T05:30:49.546Z,2.78
2023-03-05T05:34:15.409Z,4.23
2023-03-05T05:37:41.646Z,5.25
2023-03-05T05:41:08.772Z,4.74
2023-03-05T05:44:35.017Z,3.09
2023-03-05T05:48:00.868Z,1.95
2023-03-05T05:51:26.707Z,1.22
2023-03-05T05:54:52.726Z,0.69
2023-03-05T05:58:18.781Z,0.46
2023-03-05T06:01:44.735Z,2.07
2023-03-05T06:05:13.073Z,3.41
2023-03-05T06:08:31.397Z,4.11
2023-03-05T06:11:57.348Z,3.11
2023-03-05T06:15:23.227Z,2.71
2023-03-05T06:18:49.500Z,3.94
2023-03-05T06:22:15.340Z,3.84
2023-03-05T06:25:41.260Z,3.89
2023-03-05T06:29:07.265Z,3.27
2023-03-05T06:32:33.560Z,3.86
2023-03-05T06:35:59.398Z,4.65
2023-03-05T06:39:25.035Z,5.05
2023-03-05T06:42:50.599Z,3.98
2023-03-05T06:46:17.432Z,2.55
2023-03-05T06:49:43.169Z,3.01
2023-03-05T06:53:08.861Z,4.50
2023-03-05T06:56:36.773Z,5.19
2023-03-05T07:00:02.422Z,5.12
2023-03-05T07:03:28.394Z,3.49
2023-03-05T07:06:54.289Z,2.64
2023-03-05T07:10:20.316Z,4.00
2023-03-05T07:13:47.738Z,5.42
2023-03-05T07:17:15.317Z,6.12
2023-03-05T07:20:40.937Z,4.96
2023-03-05T07:24:07.151Z,3.57
2023-03-05T07:27:35.419Z,3.00
2023-03-05T07:31:02.008Z,4.15
2023-03-05T07:34:17.752Z,5.25
2023-03-05T07:37:43.562Z,5.48
2023-03-05T07:41:09.936Z,5.57
2023-03-05T07:44:35.645Z,4.29
2023-03-05T07:48:01.239Z,3.58
2023-03-05T07:51:28.649Z,5.04
2023-03-05T07:54:54.448Z,5.87
2023-03-05T07:58:20.092Z,6.16
2023-03-05T08:01:46.376Z,5.32
2023-03-05T08:05:12.520Z,4.04
2023-03-05T08:08:38.515Z,5.04
2023-03-05T08:12:04.256Z,5.42
2023-03-05T08:15:30.835Z,6.18
2023-03-05T08:18:58.000Z,6.96
2023-03-05T08:22:23.719Z,5.03
2023-03-05T08:25:49.689Z,4.61
2023-03-05T08:29:15.962Z,5.31
2023-03-05T08:32:36.146Z,5.08
2023-03-05T08:36:22.495Z,5.32
2023-03-05T08:40:10.780Z,5.70
2023-03-05T08:43:55.891Z,5.82
2023-03-05T08:47:31.024Z,5.06
2023-03-05T08:51:18.679Z,4.53
2023-03-05T08:54:47.820Z,4.65
2023-03-05T08:58:37.465Z,4.92
2023-03-05T09:02:28.236Z,5.01
2023-03-05T09:06:12.974Z,5.06
2023-03-05T09:09:39.127Z,5.47
2023-03-05T09:13:05.848Z,5.42
2023-03-05T09:16:32.056Z,5.75
2023-03-05T09:19:58.411Z,4.88
2023-03-05T09:23:18.450Z,4.20
2023-03-05T09:26:44.941Z,4.44
2023-03-05T09:30:31.844Z,5.22
2023-03-05T09:34:38.300Z,5.25
2023-03-05T09:38:18.965Z,4.89
2023-03-05T09:42:37.619Z,4.28
2023-03-05T09:46:12.182Z,5.09
2023-03-05T09:50:09.509Z,5.11
2023-03-05T09:54:02.306Z,4.29
2023-03-05T09:57:59.423Z,4.25
2023-03-05T10:01:29.298Z,5.00
2023-03-05T10:04:50.999Z,4.48
2023-03-05T10:08:04.631Z,4.12
2023-03-05T10:11:31.336Z,4.01
2023-03-05T10:14:50.789Z,4.72
2023-03-05T10:18:17.080Z,4.38
2023-03-05T10:22:14.173Z,4.08
2023-03-05T10:26:02.430Z,4.12
2023-03-05T10:29:55.337Z,4.17
2023-03-05T10:33:29.451Z,4.26
2023-03-05T10:36:56.193Z,4.60
2023-03-05T10:40:18.373Z,4.75
2023-03-05T10:43:50.419Z,4.53
2023-03-05T10:47:02.748Z,4.45
2023-03-05T10:50:16.563Z,4.17
2023-03-05T10:53:28.786Z,4.00
2023-03-05T10:57:04.869Z,3.68
2023-03-05T11:00:21.873Z,3.45
2023-03-05T11:03:53.297Z,3.26
2023-03-05T11:07:01.648Z,3.09
2023-03-05T11:10:16.886Z,2.98
2023-03-05T11:13:27.583Z,2.85
2023-03-05T11:16:48.844Z,2.88
2023-03-05T11:20:20.202Z,2.76
2023-03-05T11:23:34.691Z,2.66
2023-03-05T11:26:46.552Z,2.51
2023-03-05T11:30:03.747Z,2.54
2023-03-05T11:33:10.809Z,2.95
2023-03-05T11:36:37.059Z,3.58
2023-03-05T11:40:17.362Z,3.49
2023-03-05T11:43:24.061Z,3.48
2023-03-05T11:46:30.515Z,3.66
2023-03-05T11:50:02.239Z,3.87
2023-03-05T11:53:09.628Z,3.11
2023-03-05T11:56:19.706Z,2.84
2023-03-05T11:59:29.650Z,3.66
2023-03-05T12:02:45.694Z,3.81
2023-03-05T12:05:55.257Z,3.08
2023-03-05T12:09:25.093Z,2.93
2023-03-05T12:12:42.597Z,3.67
2023-03-05T12:16:00.238Z,3.76
2023-03-05T12:19:28.551Z,3.86
2023-03-05T12:22:36.681Z,2.91
2023-03-05T12:25:49.516Z,2.45
2023-03-05T12:28:56.902Z,3.16
2023-03-05T12:32:39.402Z,3.51
2023-03-05T12:36:22.049Z,2.76
2023-03-05T12:39:54.828Z,3.57
2023-03-05T12:43:34.163Z,4.34
2023-03-05T12:47:23.929Z,3.52
2023-03-05T12:51:31.459Z,3.17
2023-03-05T12:55:21.220Z,4.51
2023-03-05T12:58:53.888Z,4.27
2023-03-05T13:02:31.109Z,3.47
2023-03-05T13:05:59.449Z,3.70
2023-03-05T13:09:45.115Z,5.23
2023-03-05T13:13:22.160Z,4.81
2023-03-05T13:16:52.449Z,4.00
2023-03-05T13:20:47.368Z,3.45
2023-03-05T13:24:19.649Z,3.09
2023-03-05T13:28:35.521Z,2.98
2023-03-05T13:32:05.024Z,4.23
2023-03-05T13:35:52.362Z,4.07
2023-03-05T13:39:46.720Z,3.58
2023-03-05T13:43:43.998Z,3.25
2023-03-05T13:47:37.650Z,3.92
2023-03-05T13:51:09.139Z,4.86
2023-03-05T13:54:46.326Z,4.15
2023-03-05T13:58:42.679Z,3.64
2023-03-05T14:02:18.195Z,3.32
2023-03-05T14:05:27.334Z,4.12
2023-03-05T14:09:20.477Z,5.58
2023-03-05T14:12:54.241Z,4.78
2023-03-05T14:16:39.046Z,3.97
2023-03-05T14:20:24.706Z,3.48
2023-03-05T14:24:01.972Z,3.16
2023-03-05T14:27:31.235Z,3.79
2023-03-05T14:31:17.442Z,5.21
2023-03-05T14:34:38.465Z,4.53
2023-03-05T14:38:01.797Z,4.10
2023-03-05T14:41:38.791Z,3.92
2023-03-05T14:44:57.490Z,3.98
2023-03-05T14:48:32.830Z,4.20
2023-03-05T14:52:04.623Z,4.20
2023-03-05T14:55:32.212Z,4.11
2023-03-05T14:58:59.309Z,4.06
2023-03-05T15:02:19.502Z,3.84
2023-03-05T15:05:48.786Z,3.72
2023-03-05T15:09:17.890Z,3.60
2023-03-05T15:12:44.314Z,3.49
2023-03-05T15:16:02.523Z,3.37
2023-03-05T15:19:28.235Z,3.24
2023-03-05T15:22:54.677Z,3.19
2023-03-05T15:26:15.172Z,3.08
2023-03-05T15:29:44.670Z,3.08
2023-03-05T15:33:12.070Z,2.96
2023-03-05T15:36:20.697Z,2.87
2023-03-05T15:39:34.952Z,2.79
2023-03-05T15:42:40.646Z,2.68
2023-03-05T15:46:07.827Z,2.61
2023-03-05T15:49:25.984Z,2.57
2023-03-05T15:52:41.402Z,2.49
2023-03-05T15:56:14.850Z,2.30
2023-03-05T15:59:21.274Z,2.17
2023-03-05T16:02:26.723Z,2.07
2023-03-05T16:05:32.259Z,1.93
2023-03-05T16:08:42.210Z,1.76
2023-03-05T16:11:49.234Z,1.55
2023-03-05T16:14:55.406Z,1.44
2023-03-05T16:18:06.926Z,2.48
2023-03-05T16:21:32.989Z,3.64
2023-03-05T16:25:01.292Z,2.80
2023-03-05T16:28:26.946Z,2.08
2023-03-05T16:31:52.343Z,1.90
2023-03-05T16:35:18.254Z,3.29
2023-03-05T16:38:37.564Z,2.97
2023-03-05T16:42:06.038Z,2.12
2023-03-05T16:45:12.535Z,2.17
2023-03-05T16:48:17.952Z,3.43
2023-03-05T16:51:36.206Z,3.29
2023-03-05T16:54:44.790Z,2.52
2023-03-05T16:57:53.693Z,1.98
2023-03-05T17:00:59.208Z,1.60
2023-03-05T17:04:07.937Z,1.31
2023-03-05T17:07:26.587Z,1.06
2023-03-05T17:10:52.823Z,0.84
2023-03-05T17:14:12.147Z,0.72
2023-03-05T17:17:27.752Z,1.96
2023-03-05T17:20:53.714Z,3.51
2023-03-05T17:24:01.587Z,4.52
2023-03-05T17:27:10.414Z,5.10
2023-03-05T17:30:18.449Z,4.02
2023-03-05T17:33:23.796Z,2.98
2023-03-05T17:36:29.294Z,2.12
2023-03-05T17:39:34.782Z,1.58
2023-03-05T17:43:00.485Z,2.47
2023-03-05T17:46:26.418Z,4.16
2023-03-05T17:49:31.968Z,4.67
2023-03-05T17:52:47.820Z,3.76
2023-03-05T17:55:56.011Z,2.59
2023-03-05T17:59:23.343Z,1.87
2023-03-05T18:02:49.170Z,2.62
2023-03-05T18:06:14.805Z,4.14
2023-03-05T18:09:20.285Z,5.02
2023-03-05T18:12:46.189Z,4.42
2023-03-05T18:16:14.336Z,3.05
2023-03-05T18:19:40.037Z,2.21
2023-03-05T18:22:45.618Z,1.89
2023-03-05T18:26:01.222Z,3.22
2023-03-05T18:29:11.617Z,4.13
2023-03-05T18:32:42.808Z,3.25
2023-03-05T18:36:10.772Z,2.25
2023-03-05T18:39:18.628Z,1.58
2023-03-05T18:42:37.327Z,2.29
2023-03-05T18:45:47.114Z,3.64
2023-03-05T18:48:57.094Z,3.97
2023-03-05T18:52:04.987Z,2.99
2023-03-05T18:55:22.697Z,2.06
2023-03-05T18:58:38.330Z,1.37
2023-03-05T19:02:04.310Z,0.92
2023-03-05T19:05:10.640Z,2.06
2023-03-05T19:08:19.117Z,3.93
2023-03-05T19:11:33.984Z,5.19
2023-03-05T19:14:43.930Z,5.63
2023-03-05T19:17:49.801Z,4.35
2023-03-05T19:20:59.689Z,2.97
2023-03-05T19:24:08.086Z,2.02
2023-03-05T19:27:48.056Z,1.22
2023-03-05T19:30:53.475Z,0.66
2023-03-05T19:34:09.107Z,0.16
2023-03-05T19:37:18.224Z,-0.24
2023-03-05T19:40:24.055Z,-0.53
2023-03-05T19:43:39.662Z,-0.78
2023-03-05T19:46:50.697Z,-0.99
2023-03-05T19:49:59.626Z,-1.15
2023-03-05T19:53:07.765Z,-1.28
2023-03-05T19:56:15.662Z,-1.39
2023-03-05T19:59:22.137Z,-1.49
2023-03-05T20:02:38.018Z,-1.54
2023-03-05T20:05:57.959Z,-0.23
2023-03-05T20:09:16.602Z,1.90
2023-03-05T20:12:36.476Z,3.42
2023-03-05T20:15:44.100Z,4.39
2023-03-05T20:18:55.333Z,4.92
2023-03-05T20:22:00.839Z,5.48
2023-03-05T20:25:17.404Z,4.75
2023-03-05T20:28:26.838Z,3.09
2023-03-05T20:31:42.473Z,1.85
2023-03-05T20:34:51.197Z,1.02
2023-03-05T20:38:20.912Z,0.39
2023-03-05T20:41:26.615Z,-0.20
2023-03-05T20:44:32.261Z,-0.64
2023-03-05T20:47:42.435Z,-1.05
2023-03-05T20:50:47.917Z,-1.39
2023-03-05T20:53:56.661Z,-1.68
2023-03-05T20:57:02.267Z,-1.90
2023-03-05T21:00:16.148Z,-1.89
2023-03-05T21:03:26.353Z,-0.25
2023-03-05T21:06:33.413Z,1.68
2023-03-05T21:09:48.080Z,3.13
2023-03-05T21:12:58.126Z,4.18
2023-03-05T21:16:08.822Z,5.04
2023-03-05T21:19:36.613Z,5.73
2023-03-05T21:23:22.750Z,4.89
2023-03-05T21:26:28.231Z,3.30
2023-03-05T21:29:33.731Z,2.15
2023-03-05T21:32:39.428Z,1.33
2023-03-05T21:35:48.337Z,1.00
2023-03-05T21:39:05.662Z,2.52
2023-03-05T21:42:22.400Z,4.07
2023-03-05T21:45:31.658Z,4.82
2023-03-05T21:48:51.146Z,5.47
2023-03-05T21:52:17.032Z,4.94
2023-03-05T21:55:33.013Z,3.36
2023-03-05T21:58:41.724Z,2.19
2023-03-05T22:01:56.160Z,1.31
2023-03-05T22:05:15.577Z,0.60
2023-03-05T22:08:31.626Z,0.02
2023-03-05T22:11:43.414Z,-0.44
2023-03-05T22:14:53.911Z,-0.85
2023-03-05T22:18:14.415Z,-1.23
2023-03-05T22:21:54.788Z,-1.56
2023-03-05T22:25:32.684Z,-1.89
2023-03-05T22:28:51.524Z,-2.16
2023-03-05T22:32:37.242Z,-2.44
2023-03-05T22:35:54.965Z,-2.67
2023-03-05T22:39:38.520Z,-2.87
2023-03-05T22:43:11.833Z,-1.60
2023-03-05T22:46:35.401Z,0.65
2023-03-05T22:49:52.616Z,2.22
2023-03-05T22:53:19.415Z,3.25
2023-03-05T22:56:45.235Z,4.12
2023-03-05T23:00:59.208Z,4.55
2023-03-05T23:04:40.201Z,2.73
2023-03-05T23:08:09.294Z,1.23
2023-03-05T23:11:57.833Z,0.27
2023-03-05T23:15:26.762Z,-0.55
2023-03-05T23:18:43.489Z,-1.17
2023-03-05T23:22:12.263Z,-1.71
2023-03-05T23:25:58.269Z,-2.24
2023-03-05T23:29:25.166Z,-2.66
2023-03-05T23:32:43.649Z,-2.99
2023-03-05T23:36:12.795Z,-3.29
2023-03-05T23:39:38.609Z,-3.51
2023-03-05T23:43:05.356Z,-3.68
2023-03-05T23:46:31.215Z,-3.42
2023-03-05T23:50:18.000Z,-1.08
2023-03-05T23:53:45.874Z,0.98
2023-03-05T23:57:15.514Z,2.47
